sensor_id;sensor_type;location;lat;lon;timestamp;P1;durP1;ratioP1;P2;durP2;ratioP2
8849;SDS011;5638;50.860;4.698;2022-08-19T00:00:29;7.47;;;5.13;;
8849;SDS011;5638;50.860;4.698;2022-08-19T00:02:55;4.40;;;3.50;;
8849;SDS011;5638;50.860;4.698;2022-08-19T00:05:21;5.43;;;4.23;;
8849;SDS011;5638;50.860;4.698;2022-08-19T00:07:48;5.03;;;4.13;;
8849;SDS011;5638;50.860;4.698;2022-08-19T00:10:16;6.40;;;5.20;;
8849;SDS011;5638;50.860;4.698;2022-08-19T00:12:44;4.20;;;3.80;;
8849;SDS011;5638;50.860;4.698;2022-08-19T00:15:11;5.77;;;4.37;;
8849;SDS011;5638;50.860;4.698;2022-08-19T00:17:41;5.83;;;5.13;;
8849;SDS011;5638;50.860;4.698;2022-08-19T00:20:10;6.17;;;5.60;;
8849;SDS011;5638;50.860;4.698;2022-08-19T00:22:41;7.57;;;5.00;;
8849;SDS011;5638;50.860;4.698;2022-08-19T00:25:09;6.10;;;4.60;;
8849;SDS011;5638;50.860;4.698;2022-08-19T00:27:36;5.47;;;4.60;;
8849;SDS011;5638;50.860;4.698;2022-08-19T00:30:03;6.40;;;4.13;;
8849;SDS011;5638;50.860;4.698;2022-08-19T00:32:31;7.83;;;4.40;;
8849;SDS011;5638;50.860;4.698;2022-08-19T00:34:59;5.80;;;4.97;;
8849;SDS011;5638;50.860;4.698;2022-08-19T00:37:26;6.53;;;5.93;;
8849;SDS011;5638;50.860;4.698;2022-08-19T00:39:52;5.60;;;5.10;;
8849;SDS011;5638;50.860;4.698;2022-08-19T00:42:19;4.57;;;4.17;;
8849;SDS011;5638;50.860;4.698;2022-08-19T00:44:46;5.77;;;5.10;;
8849;SDS011;5638;50.860;4.698;2022-08-19T00:47:12;9.17;;;5.20;;
8849;SDS011;5638;50.860;4.698;2022-08-19T00:49:43;4.93;;;4.13;;
8849;SDS011;5638;50.860;4.698;2022-08-19T00:52:20;5.57;;;4.47;;
8849;SDS011;5638;50.860;4.698;2022-08-19T00:54:54;6.77;;;6.07;;
8849;SDS011;5638;50.860;4.698;2022-08-19T00:57:24;5.37;;;4.83;;
8849;SDS011;5638;50.860;4.698;2022-08-19T01:00:00;4.47;;;4.07;;
8849;SDS011;5638;50.860;4.698;2022-08-19T01:02:30;5.50;;;5.00;;
8849;SDS011;5638;50.860;4.698;2022-08-19T01:04:57;4.33;;;3.93;;
8849;SDS011;5638;50.860;4.698;2022-08-19T01:07:26;7.20;;;6.03;;
8849;SDS011;5638;50.860;4.698;2022-08-19T01:09:52;8.30;;;6.80;;
8849;SDS011;5638;50.860;4.698;2022-08-19T01:12:19;6.13;;;5.53;;
8849;SDS011;5638;50.860;4.698;2022-08-19T01:14:46;5.77;;;4.90;;
8849;SDS011;5638;50.860;4.698;2022-08-19T01:17:13;6.30;;;5.70;;
8849;SDS011;5638;50.860;4.698;2022-08-19T01:19:41;8.07;;;7.27;;
8849;SDS011;5638;50.860;4.698;2022-08-19T01:22:32;5.20;;;4.70;;
8849;SDS011;5638;50.860;4.698;2022-08-19T01:28:25;10.67;;;8.10;;
8849;SDS011;5638;50.860;4.698;2022-08-19T01:30:52;9.97;;;8.33;;
8849;SDS011;5638;50.860;4.698;2022-08-19T01:33:20;6.63;;;5.90;;
8849;SDS011;5638;50.860;4.698;2022-08-19T01:35:46;10.17;;;8.63;;
8849;SDS011;5638;50.860;4.698;2022-08-19T01:38:26;9.30;;;5.60;;
8849;SDS011;5638;50.860;4.698;2022-08-19T01:40:56;15.37;;;6.83;;
8849;SDS011;5638;50.860;4.698;2022-08-19T01:43:23;8.07;;;6.33;;
8849;SDS011;5638;50.860;4.698;2022-08-19T01:45:49;6.47;;;5.73;;
8849;SDS011;5638;50.860;4.698;2022-08-19T01:48:16;11.63;;;9.33;;
8849;SDS011;5638;50.860;4.698;2022-08-19T01:50:41;7.83;;;6.00;;
8849;SDS011;5638;50.860;4.698;2022-08-19T01:53:09;15.23;;;11.07;;
8849;SDS011;5638;50.860;4.698;2022-08-19T01:55:38;9.33;;;6.60;;
8849;SDS011;5638;50.860;4.698;2022-08-19T01:58:12;11.10;;;7.03;;
8849;SDS011;5638;50.860;4.698;2022-08-19T02:00:44;7.80;;;6.93;;
8849;SDS011;5638;50.860;4.698;2022-08-19T02:03:10;11.53;;;8.63;;
8849;SDS011;5638;50.860;4.698;2022-08-19T02:05:36;10.33;;;8.17;;
8849;SDS011;5638;50.860;4.698;2022-08-19T02:08:03;9.20;;;7.30;;
8849;SDS011;5638;50.860;4.698;2022-08-19T02:10:29;13.53;;;10.37;;
8849;SDS011;5638;50.860;4.698;2022-08-19T02:12:55;21.30;;;11.47;;
8849;SDS011;5638;50.860;4.698;2022-08-19T02:15:20;9.97;;;7.80;;
8849;SDS011;5638;50.860;4.698;2022-08-19T02:17:47;11.13;;;9.83;;
8849;SDS011;5638;50.860;4.698;2022-08-19T02:20:13;18.73;;;13.37;;
8849;SDS011;5638;50.860;4.698;2022-08-19T02:22:40;10.60;;;8.53;;
8849;SDS011;5638;50.860;4.698;2022-08-19T02:25:08;9.30;;;7.50;;
8849;SDS011;5638;50.860;4.698;2022-08-19T02:27:37;9.53;;;8.40;;
8849;SDS011;5638;50.860;4.698;2022-08-19T02:30:05;20.23;;;15.27;;
8849;SDS011;5638;50.860;4.698;2022-08-19T02:32:36;9.70;;;8.20;;
8849;SDS011;5638;50.860;4.698;2022-08-19T02:35:02;17.57;;;12.53;;
8849;SDS011;5638;50.860;4.698;2022-08-19T02:37:28;13.97;;;10.43;;
8849;SDS011;5638;50.860;4.698;2022-08-19T02:40:12;16.30;;;13.03;;
8849;SDS011;5638;50.860;4.698;2022-08-19T02:42:38;10.80;;;8.90;;
8849;SDS011;5638;50.860;4.698;2022-08-19T02:45:06;13.20;;;10.13;;
8849;SDS011;5638;50.860;4.698;2022-08-19T02:47:32;16.50;;;12.87;;
8849;SDS011;5638;50.860;4.698;2022-08-19T02:50:00;8.80;;;7.83;;
8849;SDS011;5638;50.860;4.698;2022-08-19T02:52:27;8.07;;;7.27;;
8849;SDS011;5638;50.860;4.698;2022-08-19T02:54:53;11.17;;;9.87;;
8849;SDS011;5638;50.860;4.698;2022-08-19T02:57:21;17.37;;;8.80;;
8849;SDS011;5638;50.860;4.698;2022-08-19T02:59:47;14.17;;;10.37;;
8849;SDS011;5638;50.860;4.698;2022-08-19T03:02:13;9.87;;;7.60;;
8849;SDS011;5638;50.860;4.698;2022-08-19T03:04:39;9.40;;;8.30;;
8849;SDS011;5638;50.860;4.698;2022-08-19T03:07:06;12.20;;;10.67;;
8849;SDS011;5638;50.860;4.698;2022-08-19T03:09:32;15.57;;;11.80;;
8849;SDS011;5638;50.860;4.698;2022-08-19T03:12:02;10.47;;;8.30;;
8849;SDS011;5638;50.860;4.698;2022-08-19T03:14:31;15.20;;;10.30;;
8849;SDS011;5638;50.860;4.698;2022-08-19T03:16:58;15.67;;;11.90;;
8849;SDS011;5638;50.860;4.698;2022-08-19T03:19:24;14.50;;;11.03;;
8849;SDS011;5638;50.860;4.698;2022-08-19T03:21:52;10.10;;;8.63;;
8849;SDS011;5638;50.860;4.698;2022-08-19T03:24:19;10.17;;;9.00;;
8849;SDS011;5638;50.860;4.698;2022-08-19T03:26:49;12.47;;;8.63;;
8849;SDS011;5638;50.860;4.698;2022-08-19T03:29:20;11.97;;;9.20;;
8849;SDS011;5638;50.860;4.698;2022-08-19T03:31:46;14.00;;;10.00;;
8849;SDS011;5638;50.860;4.698;2022-08-19T03:34:13;11.40;;;8.10;;
8849;SDS011;5638;50.860;4.698;2022-08-19T03:37:07;9.50;;;8.00;;
8849;SDS011;5638;50.860;4.698;2022-08-19T03:39:37;15.10;;;11.23;;
8849;SDS011;5638;50.860;4.698;2022-08-19T03:42:05;11.03;;;8.33;;
8849;SDS011;5638;50.860;4.698;2022-08-19T03:44:31;11.10;;;8.93;;
8849;SDS011;5638;50.860;4.698;2022-08-19T03:46:58;10.87;;;8.23;;
8849;SDS011;5638;50.860;4.698;2022-08-19T03:49:26;14.20;;;9.27;;
8849;SDS011;5638;50.860;4.698;2022-08-19T03:51:55;9.40;;;7.43;;
8849;SDS011;5638;50.860;4.698;2022-08-19T03:54:25;11.07;;;9.20;;
8849;SDS011;5638;50.860;4.698;2022-08-19T03:56:54;13.83;;;10.57;;
8849;SDS011;5638;50.860;4.698;2022-08-19T03:59:24;13.10;;;8.23;;
8849;SDS011;5638;50.860;4.698;2022-08-19T04:01:57;10.07;;;8.13;;
8849;SDS011;5638;50.860;4.698;2022-08-19T04:04:26;7.47;;;6.73;;
8849;SDS011;5638;50.860;4.698;2022-08-19T04:06:53;12.13;;;7.17;;
8849;SDS011;5638;50.860;4.698;2022-08-19T04:09:20;8.70;;;7.30;;
8849;SDS011;5638;50.860;4.698;2022-08-19T04:11:47;10.87;;;8.90;;
8849;SDS011;5638;50.860;4.698;2022-08-19T04:14:19;12.10;;;7.67;;
8849;SDS011;5638;50.860;4.698;2022-08-19T04:16:49;8.70;;;6.63;;
8849;SDS011;5638;50.860;4.698;2022-08-19T04:19:17;7.37;;;6.67;;
8849;SDS011;5638;50.860;4.698;2022-08-19T04:21:45;8.43;;;7.33;;
8849;SDS011;5638;50.860;4.698;2022-08-19T04:24:15;10.23;;;7.97;;
8849;SDS011;5638;50.860;4.698;2022-08-19T04:26:41;8.17;;;6.63;;
8849;SDS011;5638;50.860;4.698;2022-08-19T04:29:09;10.63;;;8.00;;
8849;SDS011;5638;50.860;4.698;2022-08-19T04:31:39;11.00;;;8.87;;
8849;SDS011;5638;50.860;4.698;2022-08-19T04:34:09;13.63;;;9.33;;
8849;SDS011;5638;50.860;4.698;2022-08-19T04:36:38;7.00;;;6.00;;
8849;SDS011;5638;50.860;4.698;2022-08-19T04:39:08;10.70;;;7.20;;
8849;SDS011;5638;50.860;4.698;2022-08-19T04:41:43;8.37;;;6.73;;
8849;SDS011;5638;50.860;4.698;2022-08-19T04:44:29;8.13;;;7.27;;
8849;SDS011;5638;50.860;4.698;2022-08-19T04:46:58;9.53;;;6.93;;
8849;SDS011;5638;50.860;4.698;2022-08-19T04:49:25;10.23;;;8.23;;
8849;SDS011;5638;50.860;4.698;2022-08-19T04:51:51;11.63;;;8.77;;
8849;SDS011;5638;50.860;4.698;2022-08-19T04:54:19;11.60;;;9.20;;
8849;SDS011;5638;50.860;4.698;2022-08-19T04:56:50;11.93;;;8.17;;
8849;SDS011;5638;50.860;4.698;2022-08-19T04:59:18;11.93;;;8.07;;
8849;SDS011;5638;50.860;4.698;2022-08-19T05:01:45;11.57;;;8.20;;
8849;SDS011;5638;50.860;4.698;2022-08-19T05:04:15;6.97;;;6.13;;
8849;SDS011;5638;50.860;4.698;2022-08-19T05:06:44;12.50;;;7.63;;
8849;SDS011;5638;50.860;4.698;2022-08-19T05:09:13;9.53;;;7.30;;
8849;SDS011;5638;50.860;4.698;2022-08-19T05:11:40;7.83;;;6.43;;
8849;SDS011;5638;50.860;4.698;2022-08-19T05:14:07;9.53;;;8.37;;
8849;SDS011;5638;50.860;4.698;2022-08-19T05:16:35;8.23;;;6.70;;
8849;SDS011;5638;50.860;4.698;2022-08-19T05:19:01;14.73;;;6.33;;
8849;SDS011;5638;50.860;4.698;2022-08-19T05:21:45;7.30;;;6.60;;
8849;SDS011;5638;50.860;4.698;2022-08-19T05:24:30;12.40;;;7.90;;
8849;SDS011;5638;50.860;4.698;2022-08-19T05:27:01;13.53;;;8.97;;
8849;SDS011;5638;50.860;4.698;2022-08-19T05:29:30;8.57;;;6.50;;
8849;SDS011;5638;50.860;4.698;2022-08-19T05:31:59;15.03;;;9.67;;
8849;SDS011;5638;50.860;4.698;2022-08-19T05:34:27;15.23;;;8.03;;
8849;SDS011;5638;50.860;4.698;2022-08-19T05:36:54;7.37;;;6.43;;
8849;SDS011;5638;50.860;4.698;2022-08-19T05:39:27;8.90;;;7.33;;
8849;SDS011;5638;50.860;4.698;2022-08-19T05:41:56;7.53;;;5.90;;
8849;SDS011;5638;50.860;4.698;2022-08-19T05:44:27;9.60;;;7.63;;
8849;SDS011;5638;50.860;4.698;2022-08-19T05:46:57;7.80;;;7.00;;
8849;SDS011;5638;50.860;4.698;2022-08-19T05:49:24;14.10;;;9.53;;
8849;SDS011;5638;50.860;4.698;2022-08-19T05:51:52;11.90;;;9.53;;
8849;SDS011;5638;50.860;4.698;2022-08-19T05:54:18;7.07;;;6.27;;
8849;SDS011;5638;50.860;4.698;2022-08-19T05:56:45;6.57;;;5.83;;
8849;SDS011;5638;50.860;4.698;2022-08-19T05:59:12;13.83;;;10.57;;
8849;SDS011;5638;50.860;4.698;2022-08-19T06:01:41;7.13;;;5.30;;
8849;SDS011;5638;50.860;4.698;2022-08-19T06:04:10;7.53;;;5.73;;
8849;SDS011;5638;50.860;4.698;2022-08-19T06:06:38;7.97;;;5.17;;
8849;SDS011;5638;50.860;4.698;2022-08-19T06:09:06;7.90;;;7.03;;
8849;SDS011;5638;50.860;4.698;2022-08-19T06:11:39;10.80;;;8.23;;
8849;SDS011;5638;50.860;4.698;2022-08-19T06:14:15;10.87;;;8.57;;
8849;SDS011;5638;50.860;4.698;2022-08-19T06:16:46;8.17;;;5.37;;
8849;SDS011;5638;50.860;4.698;2022-08-19T06:19:16;8.40;;;6.03;;
8849;SDS011;5638;50.860;4.698;2022-08-19T06:21:45;6.50;;;5.63;;
8849;SDS011;5638;50.860;4.698;2022-08-19T06:24:17;8.73;;;5.93;;
8849;SDS011;5638;50.860;4.698;2022-08-19T06:26:51;6.90;;;5.30;;
8849;SDS011;5638;50.860;4.698;2022-08-19T06:29:21;11.20;;;6.43;;
8849;SDS011;5638;50.860;4.698;2022-08-19T06:31:51;9.10;;;6.10;;
8849;SDS011;5638;50.860;4.698;2022-08-19T06:34:21;8.33;;;6.27;;
8849;SDS011;5638;50.860;4.698;2022-08-19T06:36:49;8.97;;;6.73;;
8849;SDS011;5638;50.860;4.698;2022-08-19T06:39:18;9.33;;;7.10;;
8849;SDS011;5638;50.860;4.698;2022-08-19T06:41:53;8.20;;;6.20;;
8849;SDS011;5638;50.860;4.698;2022-08-19T06:44:23;8.87;;;6.63;;
8849;SDS011;5638;50.860;4.698;2022-08-19T06:46:51;12.53;;;7.53;;
8849;SDS011;5638;50.860;4.698;2022-08-19T06:49:19;8.20;;;6.37;;
8849;SDS011;5638;50.860;4.698;2022-08-19T06:51:45;8.70;;;6.97;;
8849;SDS011;5638;50.860;4.698;2022-08-19T06:54:13;8.33;;;6.37;;
8849;SDS011;5638;50.860;4.698;2022-08-19T06:56:42;10.07;;;7.43;;
8849;SDS011;5638;50.860;4.698;2022-08-19T06:59:12;6.87;;;5.30;;
8849;SDS011;5638;50.860;4.698;2022-08-19T07:01:49;7.43;;;5.83;;
8849;SDS011;5638;50.860;4.698;2022-08-19T07:04:19;8.03;;;5.40;;
8849;SDS011;5638;50.860;4.698;2022-08-19T07:06:49;10.03;;;5.90;;
8849;SDS011;5638;50.860;4.698;2022-08-19T07:09:21;6.57;;;5.57;;
8849;SDS011;5638;50.860;4.698;2022-08-19T07:11:48;8.57;;;5.90;;
8849;SDS011;5638;50.860;4.698;2022-08-19T07:14:18;5.67;;;5.07;;
8849;SDS011;5638;50.860;4.698;2022-08-19T07:16:50;6.70;;;5.67;;
8849;SDS011;5638;50.860;4.698;2022-08-19T07:19:20;9.83;;;5.57;;
8849;SDS011;5638;50.860;4.698;2022-08-19T07:21:48;8.60;;;5.70;;
8849;SDS011;5638;50.860;4.698;2022-08-19T07:24:18;6.90;;;5.10;;
8849;SDS011;5638;50.860;4.698;2022-08-19T07:26:48;5.50;;;4.60;;
8849;SDS011;5638;50.860;4.698;2022-08-19T07:29:15;6.57;;;4.90;;
8849;SDS011;5638;50.860;4.698;2022-08-19T07:31:43;5.40;;;4.13;;
8849;SDS011;5638;50.860;4.698;2022-08-19T07:34:10;6.33;;;4.87;;
8849;SDS011;5638;50.860;4.698;2022-08-19T07:36:39;7.43;;;4.97;;
8849;SDS011;5638;50.860;4.698;2022-08-19T07:39:09;4.57;;;4.07;;
8849;SDS011;5638;50.860;4.698;2022-08-19T07:41:41;6.07;;;4.47;;
8849;SDS011;5638;50.860;4.698;2022-08-19T07:44:08;5.20;;;3.97;;
8849;SDS011;5638;50.860;4.698;2022-08-19T07:46:37;4.57;;;3.90;;
8849;SDS011;5638;50.860;4.698;2022-08-19T07:49:07;5.33;;;3.77;;
8849;SDS011;5638;50.860;4.698;2022-08-19T07:51:38;5.43;;;3.40;;
8849;SDS011;5638;50.860;4.698;2022-08-19T07:54:04;3.77;;;3.07;;
8849;SDS011;5638;50.860;4.698;2022-08-19T07:56:29;8.40;;;3.20;;
8849;SDS011;5638;50.860;4.698;2022-08-19T07:58:55;3.33;;;3.00;;
8849;SDS011;5638;50.860;4.698;2022-08-19T08:01:23;3.37;;;2.50;;
8849;SDS011;5638;50.860;4.698;2022-08-19T08:03:53;4.10;;;2.90;;
8849;SDS011;5638;50.860;4.698;2022-08-19T08:06:40;4.43;;;2.93;;
8849;SDS011;5638;50.860;4.698;2022-08-19T08:09:27;3.03;;;2.73;;
8849;SDS011;5638;50.860;4.698;2022-08-19T08:12:06;5.67;;;2.70;;
8849;SDS011;5638;50.860;4.698;2022-08-19T08:14:44;2.40;;;2.20;;
8849;SDS011;5638;50.860;4.698;2022-08-19T08:17:14;3.03;;;2.50;;
8849;SDS011;5638;50.860;4.698;2022-08-19T08:19:44;3.70;;;2.70;;
8849;SDS011;5638;50.860;4.698;2022-08-19T08:22:13;5.70;;;3.10;;
8849;SDS011;5638;50.860;4.698;2022-08-19T08:25:02;3.60;;;2.80;;
8849;SDS011;5638;50.860;4.698;2022-08-19T08:27:35;4.20;;;2.77;;
8849;SDS011;5638;50.860;4.698;2022-08-19T08:30:05;3.43;;;2.70;;
8849;SDS011;5638;50.860;4.698;2022-08-19T08:32:35;4.40;;;2.90;;
8849;SDS011;5638;50.860;4.698;2022-08-19T08:35:03;5.70;;;2.93;;
8849;SDS011;5638;50.860;4.698;2022-08-19T08:37:35;3.60;;;2.90;;
8849;SDS011;5638;50.860;4.698;2022-08-19T08:40:07;5.37;;;2.70;;
8849;SDS011;5638;50.860;4.698;2022-08-19T08:43:09;3.73;;;2.80;;
8849;SDS011;5638;50.860;4.698;2022-08-19T08:46:06;6.33;;;3.30;;
8849;SDS011;5638;50.860;4.698;2022-08-19T08:54:42;3.20;;;2.90;;
8849;SDS011;5638;50.860;4.698;2022-08-19T08:57:14;5.13;;;2.80;;
8849;SDS011;5638;50.860;4.698;2022-08-19T08:59:47;3.27;;;2.63;;
8849;SDS011;5638;50.860;4.698;2022-08-19T09:02:17;5.90;;;3.33;;
8849;SDS011;5638;50.860;4.698;2022-08-19T09:04:43;3.90;;;2.87;;
8849;SDS011;5638;50.860;4.698;2022-08-19T09:15:35;3.97;;;2.90;;
8849;SDS011;5638;50.860;4.698;2022-08-19T09:18:09;3.80;;;2.80;;
8849;SDS011;5638;50.860;4.698;2022-08-19T09:20:36;4.00;;;2.67;;
8849;SDS011;5638;50.860;4.698;2022-08-19T09:23:02;2.43;;;2.13;;
8849;SDS011;5638;50.860;4.698;2022-08-19T09:25:29;3.00;;;2.70;;
8849;SDS011;5638;50.860;4.698;2022-08-19T09:27:57;2.83;;;2.60;;
8849;SDS011;5638;50.860;4.698;2022-08-19T09:30:28;3.27;;;2.37;;
8849;SDS011;5638;50.860;4.698;2022-08-19T09:33:04;4.33;;;2.77;;
8849;SDS011;5638;50.860;4.698;2022-08-19T09:35:32;2.43;;;2.23;;
8849;SDS011;5638;50.860;4.698;2022-08-19T09:38:00;3.20;;;2.63;;
8849;SDS011;5638;50.860;4.698;2022-08-19T09:40:26;3.23;;;2.60;;
8849;SDS011;5638;50.860;4.698;2022-08-19T09:42:54;3.27;;;2.50;;
8849;SDS011;5638;50.860;4.698;2022-08-19T09:45:21;2.37;;;2.13;;
8849;SDS011;5638;50.860;4.698;2022-08-19T09:47:47;2.33;;;2.13;;
8849;SDS011;5638;50.860;4.698;2022-08-19T09:50:16;1.93;;;1.70;;
8849;SDS011;5638;50.860;4.698;2022-08-19T09:52:43;2.00;;;1.80;;
8849;SDS011;5638;50.860;4.698;2022-08-19T09:55:10;2.17;;;1.77;;
8849;SDS011;5638;50.860;4.698;2022-08-19T09:57:37;2.57;;;2.37;;
8849;SDS011;5638;50.860;4.698;2022-08-19T10:00:05;2.60;;;2.30;;
8849;SDS011;5638;50.860;4.698;2022-08-19T10:02:34;4.00;;;2.57;;
8849;SDS011;5638;50.860;4.698;2022-08-19T10:05:00;4.53;;;2.67;;
8849;SDS011;5638;50.860;4.698;2022-08-19T10:07:45;2.67;;;2.20;;
8849;SDS011;5638;50.860;4.698;2022-08-19T10:10:11;3.47;;;2.20;;
8849;SDS011;5638;50.860;4.698;2022-08-19T10:12:38;3.80;;;2.33;;
8849;SDS011;5638;50.860;4.698;2022-08-19T10:15:05;3.77;;;2.20;;
8849;SDS011;5638;50.860;4.698;2022-08-19T10:17:31;3.63;;;2.77;;
8849;SDS011;5638;50.860;4.698;2022-08-19T10:20:00;4.13;;;2.70;;
8849;SDS011;5638;50.860;4.698;2022-08-19T10:22:29;2.53;;;2.20;;
8849;SDS011;5638;50.860;4.698;2022-08-19T10:24:55;4.10;;;2.00;;
8849;SDS011;5638;50.860;4.698;2022-08-19T10:27:21;2.27;;;2.03;;
8849;SDS011;5638;50.860;4.698;2022-08-19T10:29:48;3.23;;;2.70;;
8849;SDS011;5638;50.860;4.698;2022-08-19T10:32:13;3.70;;;2.23;;
8849;SDS011;5638;50.860;4.698;2022-08-19T10:34:40;2.60;;;2.23;;
8849;SDS011;5638;50.860;4.698;2022-08-19T10:37:06;2.83;;;2.40;;
8849;SDS011;5638;50.860;4.698;2022-08-19T10:39:33;3.47;;;2.60;;
8849;SDS011;5638;50.860;4.698;2022-08-19T10:42:06;2.53;;;2.23;;
8849;SDS011;5638;50.860;4.698;2022-08-19T10:44:35;2.73;;;2.37;;
8849;SDS011;5638;50.860;4.698;2022-08-19T10:47:02;2.30;;;2.10;;
8849;SDS011;5638;50.860;4.698;2022-08-19T10:49:29;5.47;;;2.90;;
8849;SDS011;5638;50.860;4.698;2022-08-19T10:51:56;4.03;;;3.10;;
8849;SDS011;5638;50.860;4.698;2022-08-19T10:54:40;5.03;;;2.73;;
8849;SDS011;5638;50.860;4.698;2022-08-19T10:57:25;3.37;;;2.70;;
8849;SDS011;5638;50.860;4.698;2022-08-19T10:59:55;3.27;;;2.63;;
8849;SDS011;5638;50.860;4.698;2022-08-19T11:02:22;8.33;;;2.70;;
8849;SDS011;5638;50.860;4.698;2022-08-19T11:04:48;3.20;;;2.47;;
8849;SDS011;5638;50.860;4.698;2022-08-19T11:07:16;2.57;;;2.17;;
8849;SDS011;5638;50.860;4.698;2022-08-19T11:09:42;3.07;;;2.13;;
8849;SDS011;5638;50.860;4.698;2022-08-19T11:12:09;3.13;;;2.50;;
8849;SDS011;5638;50.860;4.698;2022-08-19T11:14:35;2.77;;;2.00;;
8849;SDS011;5638;50.860;4.698;2022-08-19T11:17:02;3.83;;;2.37;;
8849;SDS011;5638;50.860;4.698;2022-08-19T11:19:30;5.30;;;2.57;;
8849;SDS011;5638;50.860;4.698;2022-08-19T11:21:57;3.93;;;2.20;;
8849;SDS011;5638;50.860;4.698;2022-08-19T11:24:27;2.30;;;2.00;;
8849;SDS011;5638;50.860;4.698;2022-08-19T11:27:00;2.30;;;2.10;;
8849;SDS011;5638;50.860;4.698;2022-08-19T11:29:30;2.50;;;2.30;;
8849;SDS011;5638;50.860;4.698;2022-08-19T11:31:59;2.77;;;2.20;;
8849;SDS011;5638;50.860;4.698;2022-08-19T11:34:28;3.73;;;1.97;;
8849;SDS011;5638;50.860;4.698;2022-08-19T11:36:54;2.77;;;2.43;;
8849;SDS011;5638;50.860;4.698;2022-08-19T11:39:24;5.47;;;2.10;;
8849;SDS011;5638;50.860;4.698;2022-08-19T11:41:53;2.60;;;2.20;;
8849;SDS011;5638;50.860;4.698;2022-08-19T11:44:20;3.57;;;2.67;;
8849;SDS011;5638;50.860;4.698;2022-08-19T11:46:46;5.40;;;2.87;;
8849;SDS011;5638;50.860;4.698;2022-08-19T11:49:12;3.90;;;2.80;;
8849;SDS011;5638;50.860;4.698;2022-08-19T11:51:41;3.53;;;2.60;;
8849;SDS011;5638;50.860;4.698;2022-08-19T11:54:08;5.17;;;2.20;;
8849;SDS011;5638;50.860;4.698;2022-08-19T11:56:36;4.13;;;2.70;;
8849;SDS011;5638;50.860;4.698;2022-08-19T11:59:03;3.00;;;2.63;;
8849;SDS011;5638;50.860;4.698;2022-08-19T12:01:29;4.07;;;3.07;;
8849;SDS011;5638;50.860;4.698;2022-08-19T12:03:56;2.50;;;2.30;;
8849;SDS011;5638;50.860;4.698;2022-08-19T12:06:24;4.43;;;3.50;;
8849;SDS011;5638;50.860;4.698;2022-08-19T12:08:54;3.53;;;3.23;;
8849;SDS011;5638;50.860;4.698;2022-08-19T12:11:22;3.83;;;3.53;;
8849;SDS011;5638;50.860;4.698;2022-08-19T12:13:50;3.90;;;3.50;;
8849;SDS011;5638;50.860;4.698;2022-08-19T12:16:18;3.93;;;3.30;;
8849;SDS011;5638;50.860;4.698;2022-08-19T12:18:49;5.30;;;3.97;;
8849;SDS011;5638;50.860;4.698;2022-08-19T12:21:17;4.03;;;3.53;;
8849;SDS011;5638;50.860;4.698;2022-08-19T12:23:49;4.17;;;3.57;;
8849;SDS011;5638;50.860;4.698;2022-08-19T12:26:16;13.30;;;3.30;;
8849;SDS011;5638;50.860;4.698;2022-08-19T12:28:43;4.83;;;3.47;;
8849;SDS011;5638;50.860;4.698;2022-08-19T12:31:09;5.20;;;3.20;;
8849;SDS011;5638;50.860;4.698;2022-08-19T12:33:39;4.30;;;3.33;;
8849;SDS011;5638;50.860;4.698;2022-08-19T12:36:08;4.53;;;3.97;;
8849;SDS011;5638;50.860;4.698;2022-08-19T12:38:37;6.03;;;3.50;;
8849;SDS011;5638;50.860;4.698;2022-08-19T12:41:04;4.17;;;3.17;;
8849;SDS011;5638;50.860;4.698;2022-08-19T12:43:34;4.53;;;3.70;;
8849;SDS011;5638;50.860;4.698;2022-08-19T12:46:03;5.63;;;3.40;;
8849;SDS011;5638;50.860;4.698;2022-08-19T12:48:33;6.37;;;3.37;;
8849;SDS011;5638;50.860;4.698;2022-08-19T12:51:00;5.27;;;3.40;;
8849;SDS011;5638;50.860;4.698;2022-08-19T12:53:33;3.50;;;3.20;;
8849;SDS011;5638;50.860;4.698;2022-08-19T12:55:59;5.90;;;3.57;;
8849;SDS011;5638;50.860;4.698;2022-08-19T12:58:25;5.53;;;3.83;;
8849;SDS011;5638;50.860;4.698;2022-08-19T13:00:52;5.60;;;3.50;;
8849;SDS011;5638;50.860;4.698;2022-08-19T13:03:18;2.80;;;2.60;;
8849;SDS011;5638;50.860;4.698;2022-08-19T13:05:44;5.27;;;2.93;;
8849;SDS011;5638;50.860;4.698;2022-08-19T13:08:09;4.67;;;3.20;;
8849;SDS011;5638;50.860;4.698;2022-08-19T13:10:36;3.20;;;2.90;;
8849;SDS011;5638;50.860;4.698;2022-08-19T13:13:04;3.50;;;3.00;;
8849;SDS011;5638;50.860;4.698;2022-08-19T13:15:35;5.10;;;3.10;;
8849;SDS011;5638;50.860;4.698;2022-08-19T13:18:07;3.10;;;2.60;;
8849;SDS011;5638;50.860;4.698;2022-08-19T13:20:36;2.83;;;2.50;;
8849;SDS011;5638;50.860;4.698;2022-08-19T13:23:03;2.72;;;2.25;;
8849;SDS011;5638;50.860;4.698;2022-08-19T13:25:29;2.87;;;2.50;;
8849;SDS011;5638;50.860;4.698;2022-08-19T13:27:57;2.73;;;2.20;;
8849;SDS011;5638;50.860;4.698;2022-08-19T13:30:24;4.78;;;2.25;;
8849;SDS011;5638;50.860;4.698;2022-08-19T13:33:25;3.10;;;2.10;;
8849;SDS011;5638;50.860;4.698;2022-08-19T13:35:56;2.25;;;2.05;;
8849;SDS011;5638;50.860;4.698;2022-08-19T13:38:24;1.85;;;1.73;;
8849;SDS011;5638;50.860;4.698;2022-08-19T13:40:51;2.53;;;2.10;;
8849;SDS011;5638;50.860;4.698;2022-08-19T13:43:19;4.28;;;2.00;;
8849;SDS011;5638;50.860;4.698;2022-08-19T13:45:49;1.98;;;1.70;;
8849;SDS011;5638;50.860;4.698;2022-08-19T13:48:18;1.73;;;1.42;;
8849;SDS011;5638;50.860;4.698;2022-08-19T13:50:44;2.13;;;1.52;;
8849;SDS011;5638;50.860;4.698;2022-08-19T13:53:12;1.65;;;1.40;;
8849;SDS011;5638;50.860;4.698;2022-08-19T13:55:38;2.42;;;1.30;;
8849;SDS011;5638;50.860;4.698;2022-08-19T13:58:07;1.52;;;1.27;;
8849;SDS011;5638;50.860;4.698;2022-08-19T14:00:37;1.55;;;1.30;;
8849;SDS011;5638;50.860;4.698;2022-08-19T14:03:09;1.40;;;1.30;;
8849;SDS011;5638;50.860;4.698;2022-08-19T14:05:36;1.33;;;1.23;;
8849;SDS011;5638;50.860;4.698;2022-08-19T14:08:02;1.75;;;1.52;;
8849;SDS011;5638;50.860;4.698;2022-08-19T14:10:28;3.10;;;1.50;;
8849;SDS011;5638;50.860;4.698;2022-08-19T14:12:57;1.45;;;1.30;;
8849;SDS011;5638;50.860;4.698;2022-08-19T14:15:26;1.77;;;1.30;;
8849;SDS011;5638;50.860;4.698;2022-08-19T14:17:54;1.50;;;1.20;;
8849;SDS011;5638;50.860;4.698;2022-08-19T14:20:23;2.38;;;1.35;;
8849;SDS011;5638;50.860;4.698;2022-08-19T14:22:55;2.28;;;1.60;;
8849;SDS011;5638;50.860;4.698;2022-08-19T14:25:24;1.40;;;1.27;;
8849;SDS011;5638;50.860;4.698;2022-08-19T14:28:00;1.90;;;1.20;;
8849;SDS011;5638;50.860;4.698;2022-08-19T14:30:33;1.58;;;1.33;;
8849;SDS011;5638;50.860;4.698;2022-08-19T14:33:07;1.42;;;1.23;;
8849;SDS011;5638;50.860;4.698;2022-08-19T14:35:34;1.83;;;1.35;;
8849;SDS011;5638;50.860;4.698;2022-08-19T14:38:02;1.55;;;1.27;;
8849;SDS011;5638;50.860;4.698;2022-08-19T14:40:39;5.05;;;1.60;;
8849;SDS011;5638;50.860;4.698;2022-08-19T14:43:09;1.45;;;1.27;;
8849;SDS011;5638;50.860;4.698;2022-08-19T14:45:36;4.65;;;1.60;;
8849;SDS011;5638;50.860;4.698;2022-08-19T14:48:07;1.52;;;1.40;;
8849;SDS011;5638;50.860;4.698;2022-08-19T14:50:35;2.75;;;1.65;;
8849;SDS011;5638;50.860;4.698;2022-08-19T14:53:04;2.35;;;1.50;;
8849;SDS011;5638;50.860;4.698;2022-08-19T14:55:34;2.40;;;1.30;;
8849;SDS011;5638;50.860;4.698;2022-08-19T14:58:01;1.17;;;1.08;;
8849;SDS011;5638;50.860;4.698;2022-08-19T15:00:37;4.50;;;1.27;;
8849;SDS011;5638;50.860;4.698;2022-08-19T15:03:04;4.03;;;1.30;;
8849;SDS011;5638;50.860;4.698;2022-08-19T15:05:34;2.47;;;1.40;;
8849;SDS011;5638;50.860;4.698;2022-08-19T15:08:04;3.25;;;1.20;;
8849;SDS011;5638;50.860;4.698;2022-08-19T15:10:30;1.92;;;1.25;;
8849;SDS011;5638;50.860;4.698;2022-08-19T15:12:56;1.37;;;1.27;;
8849;SDS011;5638;50.860;4.698;2022-08-19T15:15:23;1.30;;;1.20;;
8849;SDS011;5638;50.860;4.698;2022-08-19T15:17:49;1.20;;;1.10;;
8849;SDS011;5638;50.860;4.698;2022-08-19T15:20:16;3.20;;;1.03;;
8849;SDS011;5638;50.860;4.698;2022-08-19T15:22:46;1.20;;;1.10;;
8849;SDS011;5638;50.860;4.698;2022-08-19T15:25:13;1.40;;;1.02;;
8849;SDS011;5638;50.860;4.698;2022-08-19T15:27:43;1.20;;;1.03;;
8849;SDS011;5638;50.860;4.698;2022-08-19T15:30:10;0.80;;;0.80;;
8849;SDS011;5638;50.860;4.698;2022-08-19T15:32:37;0.97;;;0.83;;
8849;SDS011;5638;50.860;4.698;2022-08-19T15:35:04;1.55;;;0.90;;
8849;SDS011;5638;50.860;4.698;2022-08-19T15:37:31;1.20;;;0.83;;
8849;SDS011;5638;50.860;4.698;2022-08-19T15:39:57;1.17;;;0.80;;
8849;SDS011;5638;50.860;4.698;2022-08-19T15:42:23;1.10;;;0.80;;